createdAt,value
2019-03-29T00:00:54.789Z,9.50
2019-03-29T00:03:24.377Z,10.03
2019-03-29T00:05:53.897Z,9.93
2019-03-29T00:08:23.574Z,9.03
2019-03-29T00:10:53.059Z,10.00
2019-03-29T00:13:23.191Z,9.93
2019-03-29T00:15:53.106Z,10.00
2019-03-29T00:18:22.576Z,10.40
2019-03-29T00:20:52.570Z,11.00
2019-03-29T00:23:23.003Z,8.90
2019-03-29T00:25:52.465Z,9.20
2019-03-29T00:28:22.374Z,10.30
2019-03-29T00:30:51.915Z,10.73
2019-03-29T00:33:21.509Z,10.10
2019-03-29T00:35:51.189Z,9.93
2019-03-29T00:38:20.670Z,10.27
2019-03-29T00:40:50.164Z,10.20
2019-03-29T00:43:19.637Z,10.90
2019-03-29T00:45:49.114Z,10.97
2019-03-29T00:48:18.598Z,11.10
2019-03-29T00:50:48.393Z,10.50
2019-03-29T00:53:18.445Z,10.77
2019-03-29T00:55:47.930Z,10.53
2019-03-29T00:58:17.463Z,10.70
2019-03-29T01:00:46.938Z,10.63
2019-03-29T01:03:16.937Z,11.10
2019-03-29T01:05:47.012Z,11.57
2019-03-29T01:08:16.888Z,12.47
2019-03-29T01:10:46.361Z,11.83
2019-03-29T01:13:16.389Z,11.77
2019-03-29T01:15:45.970Z,11.60
2019-03-29T01:18:15.572Z,13.40
2019-03-29T01:20:47.409Z,11.90
2019-03-29T01:23:17.586Z,10.53
2019-03-29T01:25:47.541Z,12.00
2019-03-29T01:28:17.141Z,12.90
2019-03-29T01:30:46.723Z,13.07
2019-03-29T01:33:16.225Z,13.77
2019-03-29T01:35:46.022Z,13.60
2019-03-29T01:38:21.786Z,12.10
2019-03-29T01:40:46.943Z,13.63
2019-03-29T01:43:16.497Z,13.70
2019-03-29T01:45:46.073Z,13.17
2019-03-29T01:48:15.593Z,14.00
2019-03-29T01:50:45.443Z,12.93
2019-03-29T01:53:15.208Z,13.10
2019-03-29T01:55:44.965Z,13.87
2019-03-29T01:58:14.349Z,14.17
2019-03-29T02:00:43.846Z,14.23
2019-03-29T02:03:13.415Z,14.30
2019-03-29T02:05:42.847Z,14.37
2019-03-29T02:08:12.369Z,13.97
2019-03-29T02:10:42.161Z,15.17
2019-03-29T02:13:11.723Z,14.83
2019-03-29T02:15:41.569Z,14.93
2019-03-29T02:18:11.030Z,15.37
2019-03-29T02:20:40.602Z,15.57
2019-03-29T02:23:10.056Z,17.03
2019-03-29T02:25:39.508Z,15.40
2019-03-29T02:28:09.464Z,16.10
2019-03-29T02:30:39.026Z,15.23
2019-03-29T02:33:08.513Z,15.30
2019-03-29T02:35:38.967Z,15.43
2019-03-29T02:38:08.574Z,15.37
2019-03-29T02:40:38.562Z,15.37
2019-03-29T02:43:08.129Z,15.93
2019-03-29T02:45:37.728Z,16.43
2019-03-29T02:48:07.221Z,16.17
2019-03-29T02:50:36.841Z,16.63
2019-03-29T02:53:06.777Z,17.30
2019-03-29T02:55:36.621Z,17.27
2019-03-29T02:58:06.166Z,16.97
2019-03-29T03:00:36.200Z,17.20
2019-03-29T03:03:05.706Z,18.13
2019-03-29T03:05:36.508Z,16.93
2019-03-29T03:08:06.396Z,18.43
2019-03-29T03:10:36.288Z,18.27
2019-03-29T03:13:05.945Z,17.93
2019-03-29T03:15:35.491Z,16.97
2019-03-29T03:18:05.262Z,17.50
2019-03-29T03:20:34.856Z,17.57
2019-03-29T03:23:04.411Z,18.63
2019-03-29T03:25:33.956Z,17.33
2019-03-29T03:28:03.564Z,17.70
2019-03-29T03:30:33.384Z,18.10
2019-03-29T03:33:03.260Z,17.77
2019-03-29T03:35:32.730Z,17.87
2019-03-29T03:38:02.475Z,17.97
2019-03-29T03:40:31.945Z,18.07
2019-03-29T03:43:02.837Z,18.97
2019-03-29T03:45:32.410Z,19.30
2019-03-29T03:48:01.885Z,18.43
2019-03-29T03:50:40.804Z,18.77
2019-03-29T03:53:11.079Z,19.43
2019-03-29T03:55:41.437Z,19.60
2019-03-29T03:58:12.108Z,18.97
2019-03-29T04:00:57.249Z,20.57
2019-03-29T04:03:27.264Z,19.63
2019-03-29T04:05:57.316Z,20.17
2019-03-29T04:08:27.253Z,19.40
2019-03-29T04:10:57.274Z,20.30
2019-03-29T04:13:27.472Z,18.93
2019-03-29T04:15:57.387Z,19.37
2019-03-29T04:18:26.758Z,20.33
2019-03-29T04:20:56.310Z,20.33
2019-03-29T04:23:26.260Z,20.70
2019-03-29T04:25:55.810Z,20.53
2019-03-29T04:28:25.324Z,19.90
2019-03-29T04:30:55.353Z,21.43
2019-03-29T04:33:24.887Z,20.03
2019-03-29T04:35:54.417Z,20.97
2019-03-29T04:38:23.878Z,21.03
2019-03-29T04:40:53.257Z,21.00
2019-03-29T04:43:22.727Z,21.43
2019-03-29T04:45:52.165Z,21.03
2019-03-29T04:48:21.630Z,21.07
2019-03-29T04:50:51.657Z,19.97
2019-03-29T04:53:21.398Z,19.63
2019-03-29T04:55:50.878Z,22.70
2019-03-29T04:58:20.446Z,19.87
2019-03-29T05:00:49.834Z,21.30
2019-03-29T05:03:19.302Z,23.00
2019-03-29T05:05:49.052Z,21.93
2019-03-29T05:08:18.510Z,21.63
2019-03-29T05:10:48.224Z,20.47
2019-03-29T05:13:17.749Z,21.87
2019-03-29T05:15:47.283Z,20.47
2019-03-29T05:18:16.740Z,21.13
2019-03-29T05:20:46.144Z,20.90
2019-03-29T05:23:16.235Z,21.23
2019-03-29T05:25:45.680Z,22.20
2019-03-29T05:28:15.689Z,21.93
2019-03-29T05:30:46.029Z,21.70
2019-03-29T05:33:15.595Z,21.70
2019-03-29T05:35:45.063Z,21.70
2019-03-29T05:38:14.808Z,21.73
2019-03-29T05:40:44.388Z,21.00
2019-03-29T05:43:13.997Z,22.63
2019-03-29T05:45:43.449Z,23.40
2019-03-29T05:48:12.915Z,22.77
2019-03-29T05:50:42.737Z,22.23
2019-03-29T05:53:12.200Z,21.17
2019-03-29T05:55:41.654Z,23.00
2019-03-29T05:58:11.202Z,24.67
2019-03-29T06:00:40.962Z,23.13
2019-03-29T06:03:10.627Z,21.43
2019-03-29T06:05:40.359Z,23.63
2019-03-29T06:08:09.922Z,22.00
2019-03-29T06:10:48.755Z,22.50
2019-03-29T06:13:10.627Z,20.97
2019-03-29T06:15:40.153Z,19.50
2019-03-29T06:18:09.609Z,19.77
2019-03-29T06:20:39.060Z,18.73
2019-03-29T06:23:08.610Z,20.87
2019-03-29T06:25:38.252Z,21.23
2019-03-29T06:28:08.081Z,19.33
2019-03-29T06:30:37.844Z,23.63
2019-03-29T06:33:07.661Z,21.03
2019-03-29T06:35:40.351Z,21.53
2019-03-29T06:38:10.824Z,22.70
2019-03-29T06:40:40.299Z,21.90
2019-03-29T06:43:09.780Z,22.47
2019-03-29T06:45:47.826Z,22.20
2019-03-29T06:48:10.418Z,23.17
2019-03-29T06:50:39.873Z,25.60
2019-03-29T06:53:09.617Z,25.10
2019-03-29T06:55:39.014Z,24.53
2019-03-29T06:58:08.545Z,23.67
2019-03-29T07:00:38.017Z,24.23
2019-03-29T07:03:07.487Z,22.33
2019-03-29T07:05:36.921Z,23.90
2019-03-29T07:08:06.377Z,25.17
2019-03-29T07:10:35.849Z,25.17
2019-03-29T07:13:05.407Z,25.13
2019-03-29T07:15:34.901Z,22.37
2019-03-29T07:18:04.800Z,22.00
2019-03-29T07:20:34.326Z,21.33
2019-03-29T07:23:03.754Z,21.87
2019-03-29T07:25:33.248Z,20.17
2019-03-29T07:28:02.729Z,21.70
2019-03-29T07:30:32.279Z,20.90
2019-03-29T07:33:01.654Z,21.43
2019-03-29T07:35:31.121Z,20.27
2019-03-29T07:38:00.669Z,22.33
2019-03-29T07:40:30.661Z,22.03
2019-03-29T07:43:00.367Z,22.00
2019-03-29T07:45:30.194Z,22.20
2019-03-29T07:47:59.674Z,21.00
2019-03-29T07:50:29.306Z,22.27
2019-03-29T07:52:58.793Z,20.30
2019-03-29T07:55:28.181Z,22.10
2019-03-29T07:57:57.649Z,20.27
2019-03-29T08:00:27.134Z,21.27
2019-03-29T08:02:56.665Z,19.17
2019-03-29T08:05:26.224Z,18.77
2019-03-29T08:07:55.706Z,19.07
2019-03-29T08:10:30.241Z,19.20
2019-03-29T08:12:56.718Z,19.13
2019-03-29T08:15:26.259Z,19.23
2019-03-29T08:17:55.867Z,19.30
2019-03-29T08:20:39.356Z,18.83
2019-03-29T08:22:56.759Z,18.43
2019-03-29T08:25:26.198Z,18.93
2019-03-29T08:27:55.843Z,17.73
2019-03-29T08:30:25.418Z,19.27
2019-03-29T08:32:54.836Z,18.57
2019-03-29T08:35:24.301Z,19.93
2019-03-29T08:37:53.761Z,19.63
2019-03-29T08:40:23.158Z,18.47
2019-03-29T08:42:52.622Z,17.80
2019-03-29T08:45:22.190Z,17.90
2019-03-29T08:47:51.649Z,17.17
2019-03-29T08:50:21.213Z,18.50
2019-03-29T08:52:51.018Z,18.23
2019-03-29T08:55:20.476Z,18.07
2019-03-29T08:57:49.881Z,17.73
2019-03-29T09:00:32.374Z,16.20
2019-03-29T09:03:02.203Z,16.77
2019-03-29T09:05:31.854Z,15.57
2019-03-29T09:08:01.454Z,15.13
2019-03-29T09:10:31.053Z,15.37
2019-03-29T09:13:04.049Z,14.90
2019-03-29T09:15:32.190Z,15.23
2019-03-29T09:18:01.913Z,15.23
2019-03-29T09:20:34.289Z,14.27
2019-03-29T09:23:03.086Z,14.13
2019-03-29T09:25:32.574Z,14.07
2019-03-29T09:28:02.113Z,13.83
2019-03-29T09:30:31.936Z,13.33
2019-03-29T09:33:01.445Z,13.63
2019-03-29T09:35:30.989Z,13.10
2019-03-29T09:38:00.811Z,14.03
2019-03-29T09:40:30.339Z,13.50
2019-03-29T09:43:07.265Z,13.17
2019-03-29T09:45:31.353Z,13.00
2019-03-29T09:48:00.951Z,14.67
2019-03-29T09:50:30.480Z,14.13
2019-03-29T09:53:01.338Z,14.27
2019-03-29T09:55:31.530Z,13.40
2019-03-29T09:58:01.362Z,13.40
2019-03-29T10:00:30.929Z,12.47
2019-03-29T10:03:00.406Z,11.63
2019-03-29T10:05:31.560Z,11.90
2019-03-29T10:08:01.411Z,11.40
2019-03-29T10:10:34.221Z,10.43
2019-03-29T10:13:02.372Z,10.30
2019-03-29T10:15:31.901Z,8.10
2019-03-29T10:18:01.382Z,9.47
2019-03-29T10:20:30.765Z,10.43
2019-03-29T10:23:00.898Z,9.63
2019-03-29T10:25:30.881Z,9.67
2019-03-29T10:28:00.814Z,9.90
2019-03-29T10:30:38.527Z,9.13
2019-03-29T10:33:08.105Z,9.00
2019-03-29T10:35:50.818Z,8.77
2019-03-29T10:38:08.929Z,9.33
2019-03-29T10:40:38.481Z,9.70
2019-03-29T10:43:08.289Z,8.67
2019-03-29T10:45:40.319Z,9.63
2019-03-29T10:48:09.022Z,10.07
2019-03-29T10:50:38.842Z,9.80
2019-03-29T10:53:08.377Z,8.97
2019-03-29T10:55:37.825Z,9.63
2019-03-29T10:58:09.642Z,8.60
2019-03-29T11:00:40.694Z,7.97
2019-03-29T11:03:10.422Z,8.57
2019-03-29T11:05:40.049Z,8.27
2019-03-29T11:08:11.803Z,9.23
2019-03-29T11:10:41.626Z,9.80
2019-03-29T11:13:13.899Z,9.00
2019-03-29T11:15:42.570Z,8.57
2019-03-29T11:18:12.495Z,10.20
2019-03-29T11:20:42.006Z,9.50
2019-03-29T11:23:11.557Z,10.47
2019-03-29T11:25:41.024Z,9.93
2019-03-29T11:28:10.510Z,10.57
2019-03-29T11:30:42.483Z,9.57
2019-03-29T11:33:11.334Z,9.73
2019-03-29T11:35:40.713Z,9.30
2019-03-29T11:38:10.202Z,9.07
2019-03-29T11:40:39.970Z,7.70
2019-03-29T11:43:09.789Z,8.37
2019-03-29T11:45:39.877Z,9.10
2019-03-29T11:48:09.834Z,9.10
2019-03-29T11:50:39.600Z,9.87
2019-03-29T11:53:09.175Z,10.20
2019-03-29T11:55:38.706Z,9.93
2019-03-29T11:58:08.177Z,9.83
2019-03-29T12:00:38.837Z,10.23
2019-03-29T12:03:09.437Z,10.37
2019-03-29T12:05:39.613Z,9.87
2019-03-29T12:08:09.510Z,9.57
2019-03-29T12:10:39.148Z,9.77
2019-03-29T12:13:09.829Z,8.73
2019-03-29T12:15:39.640Z,9.37
2019-03-29T12:18:09.336Z,9.27
2019-03-29T12:20:39.070Z,8.70
2019-03-29T12:23:08.632Z,9.57
2019-03-29T12:25:38.172Z,9.97
2019-03-29T12:28:07.741Z,10.20
2019-03-29T12:30:37.898Z,10.23
2019-03-29T12:33:07.344Z,9.90
2019-03-29T12:35:36.869Z,8.03
2019-03-29T12:38:06.334Z,8.37
2019-03-29T12:40:35.887Z,10.07
2019-03-29T12:43:05.442Z,8.73
2019-03-29T12:45:34.964Z,9.57
2019-03-29T12:48:04.519Z,9.17
2019-03-29T12:50:34.280Z,9.27
2019-03-29T12:53:03.809Z,7.50
2019-03-29T12:55:33.597Z,7.57
2019-03-29T12:58:03.155Z,8.60
2019-03-29T13:00:33.074Z,10.57
2019-03-29T13:03:02.538Z,10.40
2019-03-29T13:05:32.123Z,9.20
2019-03-29T13:08:01.626Z,11.10
2019-03-29T13:10:31.144Z,9.63
2019-03-29T13:13:01.034Z,9.07
2019-03-29T13:15:30.694Z,8.83
2019-03-29T13:18:00.752Z,9.50
2019-03-29T13:20:30.142Z,10.17
2019-03-29T13:22:59.683Z,10.20
2019-03-29T13:25:29.662Z,9.57
2019-03-29T13:27:59.709Z,10.70
2019-03-29T13:30:30.321Z,8.60
2019-03-29T13:32:59.862Z,9.63
2019-03-29T13:35:29.398Z,10.27
2019-03-29T13:37:59.217Z,8.97
2019-03-29T13:40:28.789Z,8.43
2019-03-29T13:42:58.346Z,10.27
2019-03-29T13:45:28.197Z,9.93
2019-03-29T13:47:57.937Z,9.57
2019-03-29T13:50:27.489Z,9.20
2019-03-29T13:52:57.601Z,8.53
2019-03-29T13:55:27.741Z,9.17
2019-03-29T13:57:57.565Z,9.97
2019-03-29T14:00:27.201Z,10.33
2019-03-29T14:02:56.653Z,9.60
2019-03-29T14:05:26.502Z,9.53
2019-03-29T14:07:55.890Z,9.47
2019-03-29T14:10:25.352Z,9.73
2019-03-29T14:12:54.882Z,8.10
2019-03-29T14:15:24.537Z,9.47
2019-03-29T14:17:54.029Z,9.37
2019-03-29T14:20:31.945Z,10.87
2019-03-29T14:23:02.616Z,9.57
2019-03-29T14:25:32.169Z,10.57
2019-03-29T14:28:01.634Z,8.47
2019-03-29T14:30:31.101Z,9.40
2019-03-29T14:33:00.854Z,8.77
2019-03-29T14:35:30.396Z,9.57
2019-03-29T14:37:59.769Z,9.27
2019-03-29T14:40:29.238Z,8.57
2019-03-29T14:42:58.704Z,10.30
2019-03-29T14:45:28.266Z,8.30
2019-03-29T14:47:58.276Z,10.17
2019-03-29T14:50:27.752Z,10.67
2019-03-29T14:52:57.259Z,10.17
2019-03-29T14:55:27.189Z,10.13
2019-03-29T14:57:56.673Z,11.07
2019-03-29T15:00:42.522Z,10.30
2019-03-29T15:03:12.969Z,10.47
2019-03-29T15:05:42.605Z,10.93
2019-03-29T15:08:12.160Z,10.90
2019-03-29T15:10:41.692Z,10.90
2019-03-29T15:13:11.634Z,11.33
2019-03-29T15:15:41.012Z,11.50
2019-03-29T15:18:10.558Z,10.37
2019-03-29T15:20:52.720Z,11.07
2019-03-29T15:23:11.540Z,10.97
2019-03-29T15:25:41.109Z,9.30
2019-03-29T15:28:10.567Z,10.93
2019-03-29T15:30:40.002Z,11.67
2019-03-29T15:33:09.941Z,11.00
2019-03-29T15:35:39.932Z,12.07
2019-03-29T15:38:09.478Z,11.87
2019-03-29T15:40:39.017Z,11.30
2019-03-29T15:43:09.052Z,10.93
2019-03-29T15:45:38.581Z,13.73
2019-03-29T15:48:08.133Z,12.33
2019-03-29T15:50:37.593Z,12.00
2019-03-29T15:53:07.057Z,11.40
2019-03-29T15:55:36.598Z,12.30
2019-03-29T15:58:06.190Z,13.03
2019-03-29T16:00:35.734Z,12.67
2019-03-29T16:03:05.606Z,12.13
2019-03-29T16:05:35.070Z,11.57
2019-03-29T16:08:04.634Z,12.10
2019-03-29T16:10:34.245Z,13.37
2019-03-29T16:13:04.044Z,13.77
2019-03-29T16:15:37.976Z,12.97
2019-03-29T16:18:04.641Z,12.10
2019-03-29T16:20:34.089Z,13.77
2019-03-29T16:23:03.566Z,12.90
2019-03-29T16:25:33.109Z,10.60
2019-03-29T16:28:02.664Z,13.23
2019-03-29T16:30:32.247Z,12.80
2019-03-29T16:33:01.670Z,12.73
2019-03-29T16:35:31.157Z,12.40
2019-03-29T16:38:00.933Z,12.37
2019-03-29T16:40:31.173Z,13.00
2019-03-29T16:43:01.048Z,11.67
2019-03-29T16:45:30.433Z,11.47
2019-03-29T16:48:00.081Z,12.73
2019-03-29T16:50:29.609Z,13.47
2019-03-29T16:52:59.077Z,12.60
2019-03-29T16:55:28.463Z,12.70
2019-03-29T16:57:58.198Z,13.07
2019-03-29T17:00:27.995Z,14.13
2019-03-29T17:02:57.466Z,13.83
2019-03-29T17:05:26.950Z,13.00
2019-03-29T17:07:56.346Z,13.13
2019-03-29T17:10:25.835Z,12.50
2019-03-29T17:12:55.365Z,15.13
2019-03-29T17:15:25.930Z,14.70
2019-03-29T17:17:55.336Z,14.47
2019-03-29T17:20:25.132Z,12.57
2019-03-29T17:22:55.081Z,13.20
2019-03-29T17:25:24.539Z,12.37
2019-03-29T17:27:54.285Z,12.83
2019-03-29T17:30:37.090Z,12.70
2019-03-29T17:33:06.481Z,14.20
2019-03-29T17:35:36.257Z,13.40
2019-03-29T17:38:05.968Z,13.83
2019-03-29T17:40:35.632Z,13.80
2019-03-29T17:43:05.189Z,14.40
2019-03-29T17:45:34.725Z,15.07
2019-03-29T17:48:04.189Z,13.07
2019-03-29T17:50:33.660Z,14.10
2019-03-29T17:53:03.223Z,15.50
2019-03-29T17:55:32.769Z,14.03
2019-03-29T17:58:02.389Z,14.37
2019-03-29T18:00:32.004Z,15.20
2019-03-29T18:03:01.402Z,17.77
2019-03-29T18:05:30.864Z,13.67
2019-03-29T18:08:00.253Z,16.07
2019-03-29T18:10:29.717Z,15.40
2019-03-29T18:12:59.195Z,15.87
2019-03-29T18:15:28.767Z,19.33
2019-03-29T18:17:58.305Z,16.80
2019-03-29T18:20:28.415Z,17.27
2019-03-29T18:22:57.945Z,17.33
2019-03-29T18:25:27.797Z,16.67
2019-03-29T18:27:57.365Z,16.57
2019-03-29T18:30:41.421Z,16.80
2019-03-29T18:33:11.385Z,16.57
2019-03-29T18:35:40.933Z,15.93
2019-03-29T18:38:10.567Z,16.73
2019-03-29T18:40:40.135Z,15.07
2019-03-29T18:43:09.961Z,15.83
2019-03-29T18:45:41.630Z,17.90
2019-03-29T18:48:11.155Z,16.13
2019-03-29T18:50:40.641Z,15.17
2019-03-29T18:53:10.478Z,15.73
2019-03-29T18:55:40.021Z,16.80
2019-03-29T18:58:09.838Z,15.70
2019-03-29T19:00:40.042Z,17.40
2019-03-29T19:03:11.875Z,16.30
2019-03-29T19:05:40.700Z,15.77
2019-03-29T19:08:10.546Z,16.83
2019-03-29T19:10:40.385Z,18.10
2019-03-29T19:13:09.846Z,16.70
2019-03-29T19:15:39.346Z,18.77
2019-03-29T19:18:08.918Z,17.97
2019-03-29T19:20:38.414Z,16.60
2019-03-29T19:23:08.229Z,17.37
2019-03-29T19:25:38.049Z,18.20
2019-03-29T19:28:07.750Z,18.03
2019-03-29T19:30:37.293Z,16.37
2019-03-29T19:33:06.825Z,17.77
2019-03-29T19:35:36.370Z,16.37
2019-03-29T19:38:05.902Z,16.57
2019-03-29T19:40:35.665Z,17.17
2019-03-29T19:43:05.195Z,18.30
2019-03-29T19:45:35.281Z,17.43
2019-03-29T19:48:04.834Z,17.43
2019-03-29T19:50:34.430Z,16.40
2019-03-29T19:53:04.006Z,17.20
2019-03-29T19:55:33.605Z,17.30
2019-03-29T19:58:03.256Z,18.23
2019-03-29T20:00:43.530Z,16.80
2019-03-29T20:03:13.208Z,17.70
2019-03-29T20:05:42.682Z,18.83
2019-03-29T20:08:12.154Z,16.67
2019-03-29T20:10:41.797Z,18.23
2019-03-29T20:13:11.336Z,18.40
2019-03-29T20:15:40.802Z,17.80
2019-03-29T20:18:10.360Z,18.50
2019-03-29T20:20:39.950Z,18.33
2019-03-29T20:23:09.424Z,18.97
2019-03-29T20:25:38.968Z,16.60
2019-03-29T20:28:08.497Z,17.23
2019-03-29T20:30:38.033Z,18.33
2019-03-29T20:33:07.573Z,17.83
2019-03-29T20:35:37.422Z,18.33
2019-03-29T20:38:06.982Z,17.03
2019-03-29T20:40:36.796Z,18.93
2019-03-29T20:43:06.254Z,17.30
2019-03-29T20:45:35.802Z,19.60
2019-03-29T20:48:05.354Z,17.37
2019-03-29T20:50:35.185Z,19.60
2019-03-29T20:53:04.747Z,20.30
2019-03-29T20:55:34.306Z,17.13
2019-03-29T20:58:03.868Z,18.73
2019-03-29T21:00:33.337Z,19.17
2019-03-29T21:03:02.780Z,17.87
2019-03-29T21:05:32.337Z,19.23
2019-03-29T21:08:01.814Z,20.03
2019-03-29T21:10:31.201Z,18.87
2019-03-29T21:13:01.448Z,19.63
2019-03-29T21:15:31.670Z,21.40
2019-03-29T21:18:01.209Z,20.17
2019-03-29T21:20:30.698Z,21.53
2019-03-29T21:23:00.159Z,19.70
2019-03-29T21:25:29.578Z,23.73
2019-03-29T21:27:59.073Z,22.97
2019-03-29T21:30:28.562Z,22.53
2019-03-29T21:32:57.932Z,22.73
2019-03-29T21:35:27.418Z,23.13
2019-03-29T21:37:56.951Z,24.00
2019-03-29T21:40:26.406Z,20.80
2019-03-29T21:42:57.277Z,21.00
2019-03-29T21:45:29.066Z,21.80
2019-03-29T21:48:10.013Z,21.97
2019-03-29T21:50:30.116Z,21.83
2019-03-29T21:52:59.857Z,22.67
2019-03-29T21:55:29.804Z,22.33
2019-03-29T21:57:59.204Z,20.33
2019-03-29T22:00:28.699Z,21.53
2019-03-29T22:02:58.271Z,21.43
2019-03-29T22:05:28.125Z,20.77
2019-03-29T22:07:57.669Z,20.90
2019-03-29T22:10:27.317Z,21.80
2019-03-29T22:12:56.726Z,19.90
2019-03-29T22:15:26.177Z,21.17
2019-03-29T22:17:55.641Z,21.50
2019-03-29T22:20:25.386Z,22.63
2019-03-29T22:22:54.863Z,21.57
2019-03-29T22:25:24.321Z,21.83
2019-03-29T22:27:53.793Z,23.37
2019-03-29T22:30:23.720Z,22.90
2019-03-29T22:32:53.105Z,22.80
2019-03-29T22:35:22.575Z,23.03
2019-03-29T22:37:51.994Z,23.07
2019-03-29T22:40:21.547Z,22.33
2019-03-29T22:42:51.176Z,21.83
2019-03-29T22:45:20.629Z,23.63
2019-03-29T22:47:50.261Z,24.50
2019-03-29T22:50:19.790Z,23.97
2019-03-29T22:52:49.261Z,24.97
2019-03-29T22:55:18.633Z,23.77
2019-03-29T22:57:48.100Z,26.10
2019-03-29T23:00:27.994Z,26.27
2019-03-29T23:02:57.559Z,27.30
2019-03-29T23:05:27.102Z,26.53
2019-03-29T23:07:56.686Z,24.77
2019-03-29T23:10:26.232Z,27.53
2019-03-29T23:12:55.777Z,25.30
2019-03-29T23:15:25.988Z,26.97
2019-03-29T23:17:55.440Z,24.80
2019-03-29T23:20:25.521Z,25.67
2019-03-29T23:22:55.224Z,24.53
2019-03-29T23:25:24.752Z,25.30
2019-03-29T23:27:54.340Z,23.63
2019-03-29T23:30:24.181Z,24.27
2019-03-29T23:32:53.651Z,23.33
2019-03-29T23:35:23.034Z,22.37
2019-03-29T23:37:52.515Z,23.53
2019-03-29T23:40:21.981Z,23.90
2019-03-29T23:42:51.450Z,22.47
2019-03-29T23:45:21.264Z,20.97
2019-03-29T23:47:50.891Z,22.27
2019-03-29T23:50:20.678Z,21.30
2019-03-29T23:52:50.061Z,21.50
2019-03-29T23:55:19.598Z,20.73
2019-03-29T23:57:49.089Z,22.17
